Terminal Aerodrome Forecast
Issued by NWS

Home | Current Version | Previous Version | Text Only | Print | Product List | Glossary On
Versions: 1 2 3 4 5 6 7 8 9 10 11 12 13
000
FTUS44 KEPZ 051138
TAFDMN
TAF
KDMN 051138Z 0512/0612 31006KT P6SM SCT080 BKN150
     FM052200 27010KT P6SM VCTS SCT080CB BKN180
     FM060300 29008KT P6SM VCSH SCT080 BKN150=

USA.gov is the U.S. government's official web portal to all federal, state and local government web resources and services.